Terminal Aerodrome Forecast
Issued by NWS

Home | Current Version | Previous Version | Graphics & Text | Print | Product List | Glossary On
Versions: 1 2 3 4 5 6 7 8 9 10 11 12 13 14 15 16
745
FTUS43 KMPX 232338
TAFRNH
TAF
KRNH 232338Z 2400/2424 09009KT P6SM -SHRA SCT020 OVC035
      TEMPO 2400/2402 4SM SHRA BR BKN020
     FM240200 11008KT P6SM VCSH SCT010 OVC020
     FM240500 12008KT P6SM OVC008
     FM241800 13012KT P6SM SCT008 OVC015
     FM242200 13011KT P6SM SCT015 OVC025=

USA.gov is the U.S. government's official web portal to all federal, state and local government web resources and services.